EDDL/DUS METAR and TAF weather

Enter ICAO airport designator
Station Type Date Time Source
EDDL METAR 2019/12/11 15:20 UTC NOAA

EDDL 111520Z 17007KT 7000 FEW004 SCT006 05/04 Q1005 TEMPO BKN012


Station Type Date Time Source
EDDL Decoded METAR 2019/12/11 15:20 UTC NOAA

Duesseldorf, Germany (EDDL) 51-18N 006-46E 41M
Dec 11, 2019 - 10:20 AM EST / 2019.12.11 1520 UTC
Wind: from the S (170 degrees) at 8 MPH (7 KT):0
Visibility: 4 mile(s):0
Sky conditions: partly cloudy
Temperature: 41 F (5 C)
Dew Point: 39 F (4 C)
Relative Humidity: 93%
Pressure (altimeter): 29.68 in. Hg (1005 hPa)
ob: EDDL 111520Z 17007KT 7000 FEW004 SCT006 05/04 Q1005 TEMPO BKN012
cycle: 15

Station Type Date Time Source
EDDL TAF 2019/12/11 12:28 UTC NOAA

TAF EDDL 111100Z 1112/1218 15009KT 9999 BKN008
TEMPO 1112/1117 BKN013
BECMG 1117/1120 BKN020 PROB40
TEMPO 1203/1212 BKN011
BECMG 1204/1207 21010KT
BECMG 1215/1218 15013KT

Example: see airport list